createdAt,value
2023-05-19T00:00:17.237Z,12.82
2023-05-19T00:03:21.924Z,12.83
2023-05-19T00:06:27.766Z,12.78
2023-05-19T00:09:31.496Z,12.81
2023-05-19T00:12:34.988Z,12.76
2023-05-19T00:15:37.952Z,12.71
2023-05-19T00:18:40.792Z,12.67
2023-05-19T00:21:43.410Z,12.66
2023-05-19T00:24:45.969Z,12.71
2023-05-19T00:27:48.525Z,12.76
2023-05-19T00:30:51.918Z,12.73
2023-05-19T00:33:54.592Z,12.74
2023-05-19T00:36:57.174Z,12.76
2023-05-19T00:39:59.897Z,12.74
2023-05-19T00:43:03.027Z,12.73
2023-05-19T00:46:07.431Z,12.70
2023-05-19T00:49:10.041Z,12.64
2023-05-19T00:52:12.644Z,12.66
2023-05-19T00:55:15.487Z,12.66
2023-05-19T00:58:19.297Z,12.71
2023-05-19T01:01:22.477Z,12.76
2023-05-19T01:04:26.674Z,12.71
2023-05-19T01:07:30.199Z,12.70
2023-05-19T01:10:33.228Z,12.65
2023-05-19T01:13:36.957Z,12.75
2023-05-19T01:17:05.788Z,12.77
2023-05-19T01:20:13.970Z,12.71
2023-05-19T01:23:40.152Z,12.64
2023-05-19T01:27:06.936Z,12.61
2023-05-19T01:30:26.528Z,12.67
2023-05-19T01:33:31.341Z,12.59
2023-05-19T01:36:35.436Z,12.47
2023-05-19T01:39:40.238Z,12.39
2023-05-19T01:42:43.188Z,12.38
2023-05-19T01:45:48.475Z,12.42
2023-05-19T01:48:52.566Z,12.44
2023-05-19T01:51:56.442Z,12.41
2023-05-19T01:54:59.335Z,12.43
2023-05-19T01:58:23.096Z,12.42
2023-05-19T02:02:01.102Z,12.36
2023-05-19T02:05:12.955Z,12.36
2023-05-19T02:08:33.876Z,12.34
2023-05-19T02:11:54.996Z,12.34
2023-05-19T02:15:11.816Z,12.31
2023-05-19T02:18:17.931Z,12.40
2023-05-19T02:21:20.615Z,12.38
2023-05-19T02:24:23.481Z,12.32
2023-05-19T02:27:26.431Z,12.38
2023-05-19T02:30:29.090Z,12.39
2023-05-19T02:33:31.653Z,12.41
2023-05-19T02:36:36.699Z,12.40
2023-05-19T02:39:39.421Z,12.43
2023-05-19T02:42:42.024Z,12.48
2023-05-19T02:45:45.479Z,12.48
2023-05-19T02:48:48.105Z,12.53
2023-05-19T02:51:50.659Z,12.58
2023-05-19T02:54:53.197Z,12.66
2023-05-19T02:57:55.946Z,12.66
2023-05-19T03:00:58.535Z,12.69
2023-05-19T03:04:01.811Z,12.75
2023-05-19T03:07:06.322Z,12.78
2023-05-19T03:10:09.179Z,12.79
2023-05-19T03:13:11.837Z,12.75
2023-05-19T03:16:14.575Z,12.81
2023-05-19T03:19:18.359Z,12.83
2023-05-19T03:22:21.473Z,12.82
2023-05-19T03:25:24.394Z,12.85
2023-05-19T03:28:29.659Z,12.85
2023-05-19T03:31:32.429Z,12.81
2023-05-19T03:34:35.686Z,12.74
2023-05-19T03:37:38.664Z,12.76
2023-05-19T03:40:41.884Z,12.83
2023-05-19T03:43:46.851Z,12.93
2023-05-19T03:46:50.227Z,13.01
2023-05-19T03:49:52.713Z,13.02
2023-05-19T03:53:18.574Z,13.10
2023-05-19T03:56:23.770Z,13.13
2023-05-19T03:59:26.398Z,13.23
2023-05-19T04:02:29.028Z,13.26
2023-05-19T04:05:31.881Z,13.26
2023-05-19T04:08:35.777Z,13.20
2023-05-19T04:11:39.762Z,13.21
2023-05-19T04:14:42.345Z,13.19
2023-05-19T04:17:46.251Z,13.14
2023-05-19T04:20:49.075Z,13.12
2023-05-19T04:23:51.899Z,13.27
2023-05-19T04:26:54.467Z,13.27
2023-05-19T04:29:58.173Z,13.30
2023-05-19T04:33:01.362Z,13.31
2023-05-19T04:36:08.632Z,13.33
2023-05-19T04:39:12.428Z,13.45
2023-05-19T04:42:19.525Z,13.51
2023-05-19T04:45:23.472Z,13.59
2023-05-19T04:48:31.036Z,13.62
2023-05-19T04:51:33.724Z,13.70
2023-05-19T04:54:38.584Z,13.69
2023-05-19T04:57:41.803Z,13.86
2023-05-19T05:00:44.559Z,14.01
2023-05-19T05:03:48.095Z,13.98
2023-05-19T05:06:51.606Z,14.18
2023-05-19T05:09:55.000Z,14.18
2023-05-19T05:12:58.107Z,14.11
2023-05-19T05:16:01.036Z,14.29
2023-05-19T05:19:04.076Z,14.05
2023-05-19T05:22:07.413Z,14.34
2023-05-19T05:25:14.535Z,14.37
2023-05-19T05:28:18.775Z,14.38
2023-05-19T05:31:23.080Z,14.39
2023-05-19T05:34:25.748Z,14.60
2023-05-19T05:37:29.708Z,14.61
2023-05-19T05:40:33.458Z,14.72
2023-05-19T05:43:36.282Z,15.10
2023-05-19T05:46:40.348Z,14.93
2023-05-19T05:49:44.160Z,15.14
2023-05-19T05:52:49.107Z,15.09
2023-05-19T05:55:53.792Z,15.31
2023-05-19T05:59:00.215Z,15.64
2023-05-19T06:02:03.504Z,15.57
2023-05-19T06:05:08.276Z,15.54
2023-05-19T06:08:11.218Z,15.53
2023-05-19T06:11:14.072Z,15.76
2023-05-19T06:14:17.560Z,15.81
2023-05-19T06:17:41.009Z,15.77
2023-05-19T06:20:43.678Z,15.79
2023-05-19T06:23:46.224Z,15.27
2023-05-19T06:26:48.869Z,15.57
2023-05-19T06:29:53.309Z,15.72
2023-05-19T06:32:56.849Z,15.67
2023-05-19T06:36:01.112Z,16.02
2023-05-19T06:39:04.004Z,16.07
2023-05-19T06:42:08.181Z,16.18
2023-05-19T06:45:40.108Z,16.24
2023-05-19T06:48:44.382Z,15.86
2023-05-19T06:51:47.891Z,16.34
2023-05-19T06:54:50.832Z,16.32
2023-05-19T06:57:53.955Z,16.14
2023-05-19T07:00:57.030Z,16.07
2023-05-19T07:04:03.627Z,16.12
2023-05-19T07:07:06.529Z,16.24
2023-05-19T07:10:09.955Z,16.40
2023-05-19T07:13:12.758Z,16.74
2023-05-19T07:16:15.559Z,16.93
2023-05-19T07:19:19.902Z,17.48
2023-05-19T07:22:24.226Z,17.52
2023-05-19T07:25:28.772Z,17.47
2023-05-19T07:28:31.522Z,17.63
2023-05-19T07:31:34.254Z,18.00
2023-05-19T07:34:36.895Z,17.83
2023-05-19T07:37:39.632Z,17.44
2023-05-19T07:40:42.228Z,17.52
2023-05-19T07:43:44.796Z,17.29
2023-05-19T07:46:47.970Z,17.51
2023-05-19T07:49:51.851Z,17.72
2023-05-19T07:52:56.652Z,17.71
2023-05-19T07:56:02.074Z,18.18
2023-05-19T07:59:04.898Z,17.84
2023-05-19T08:02:07.904Z,18.17
2023-05-19T08:05:10.800Z,18.56
2023-05-19T08:08:17.857Z,18.59
2023-05-19T08:11:21.890Z,18.59
2023-05-19T08:14:25.093Z,18.67
2023-05-19T08:17:27.894Z,19.13
2023-05-19T08:20:32.079Z,18.85
2023-05-19T08:23:34.919Z,19.11
2023-05-19T08:26:38.196Z,19.35
2023-05-19T08:29:41.198Z,19.20
2023-05-19T08:32:44.830Z,19.26
2023-05-19T08:35:48.209Z,19.45
2023-05-19T08:38:51.186Z,19.73
2023-05-19T08:41:54.643Z,19.41
2023-05-19T08:44:57.660Z,18.84
2023-05-19T08:48:00.948Z,19.00
2023-05-19T08:51:33.479Z,18.91
2023-05-19T08:54:54.715Z,18.86
2023-05-19T08:57:57.649Z,19.17
2023-05-19T09:01:01.421Z,19.40
2023-05-19T09:04:04.746Z,19.12
2023-05-19T09:07:09.520Z,19.43
2023-05-19T09:10:16.315Z,19.36
2023-05-19T09:13:19.616Z,19.80
2023-05-19T09:16:22.619Z,19.58
2023-05-19T09:19:29.124Z,19.60
2023-05-19T09:22:35.738Z,19.26
2023-05-19T09:25:47.327Z,19.61
2023-05-19T09:28:49.931Z,19.73
2023-05-19T09:31:54.797Z,19.68
2023-05-19T09:34:57.373Z,20.02
2023-05-19T09:38:00.987Z,20.12
2023-05-19T09:41:05.250Z,20.09
2023-05-19T09:44:07.924Z,20.17
2023-05-19T09:47:11.767Z,20.24
2023-05-19T09:50:14.516Z,20.52
2023-05-19T09:53:19.361Z,20.45
2023-05-19T09:56:23.939Z,20.85
2023-05-19T09:59:30.531Z,20.78
2023-05-19T10:02:35.325Z,20.50
2023-05-19T10:05:38.711Z,20.19
2023-05-19T10:08:42.596Z,20.30
2023-05-19T10:11:46.095Z,19.94
2023-05-19T10:14:49.857Z,19.78
2023-05-19T10:17:53.317Z,20.28
2023-05-19T10:20:58.270Z,20.55
2023-05-19T10:24:01.177Z,20.59
2023-05-19T10:27:08.514Z,20.58
2023-05-19T10:30:16.885Z,20.52
2023-05-19T10:33:23.297Z,20.90
2023-05-19T10:36:40.935Z,21.28
2023-05-19T10:39:46.132Z,21.62
2023-05-19T10:43:19.537Z,21.98
2023-05-19T10:46:27.600Z,21.86
2023-05-19T10:49:36.672Z,21.52
2023-05-19T10:52:40.776Z,21.34
2023-05-19T10:55:49.469Z,20.99
2023-05-19T10:58:53.064Z,21.21
2023-05-19T11:01:55.722Z,21.61
2023-05-19T11:05:09.328Z,21.91
2023-05-19T11:08:12.853Z,22.26
2023-05-19T11:11:17.081Z,22.57
2023-05-19T11:14:26.760Z,22.95
2023-05-19T11:17:29.612Z,23.07
2023-05-19T11:20:34.862Z,23.10
2023-05-19T11:23:40.704Z,22.58
2023-05-19T11:26:43.911Z,22.85
2023-05-19T11:29:49.291Z,23.31
2023-05-19T11:33:01.018Z,23.95
2023-05-19T11:36:05.753Z,24.46
2023-05-19T11:39:09.600Z,24.86
2023-05-19T11:42:12.163Z,25.04
2023-05-19T11:45:14.707Z,24.75
2023-05-19T11:48:21.251Z,23.84
2023-05-19T11:51:24.423Z,24.30
2023-05-19T11:54:33.823Z,24.70
2023-05-19T11:57:36.719Z,25.27
2023-05-19T12:00:43.385Z,26.29
2023-05-19T12:03:46.607Z,26.65
2023-05-19T12:06:51.463Z,27.04
2023-05-19T12:09:55.885Z,27.17
2023-05-19T12:12:59.870Z,25.29
2023-05-19T12:16:04.778Z,26.61
2023-05-19T12:19:07.512Z,24.97
2023-05-19T12:22:10.869Z,24.61
2023-05-19T12:25:15.274Z,25.80
2023-05-19T12:28:19.813Z,27.39
2023-05-19T12:31:25.616Z,28.23
2023-05-19T12:34:28.479Z,28.08
2023-05-19T12:37:31.124Z,26.35
2023-05-19T12:40:37.800Z,24.44
2023-05-19T12:43:41.179Z,25.66
2023-05-19T12:46:44.439Z,27.07
2023-05-19T12:49:57.567Z,28.18
2023-05-19T12:53:00.346Z,28.01
2023-05-19T12:56:13.176Z,28.47
2023-05-19T12:59:30.922Z,29.46
2023-05-19T13:03:00.105Z,28.26
2023-05-19T13:06:03.024Z,28.87
2023-05-19T13:09:07.355Z,29.74
2023-05-19T13:12:09.877Z,28.45
2023-05-19T13:15:12.949Z,29.06
2023-05-19T13:18:15.530Z,30.04
2023-05-19T13:21:18.013Z,29.80
2023-05-19T13:24:20.558Z,27.50
2023-05-19T13:27:24.862Z,29.71
2023-05-19T13:30:28.367Z,30.82
2023-05-19T13:33:30.964Z,30.48
2023-05-19T13:36:35.042Z,30.57
2023-05-19T13:39:38.055Z,30.82
2023-05-19T13:42:41.624Z,30.91
2023-05-19T13:45:44.671Z,31.23
2023-05-19T13:48:47.331Z,30.70
2023-05-19T13:51:50.032Z,30.24
2023-05-19T13:54:54.643Z,30.57
2023-05-19T13:57:58.153Z,31.45
2023-05-19T14:01:01.006Z,32.47
2023-05-19T14:04:05.253Z,33.27
2023-05-19T14:07:08.392Z,33.05
2023-05-19T14:10:11.414Z,32.87
2023-05-19T14:13:31.637Z,32.52
2023-05-19T14:16:38.160Z,33.35
2023-05-19T14:19:41.194Z,33.47
2023-05-19T14:22:43.713Z,33.87
2023-05-19T14:25:46.248Z,34.23
2023-05-19T14:28:48.984Z,32.95
2023-05-19T14:31:51.750Z,31.96
2023-05-19T14:34:54.367Z,30.63
2023-05-19T14:37:56.880Z,29.59
2023-05-19T14:40:59.446Z,29.75
2023-05-19T14:44:01.979Z,30.83
2023-05-19T14:47:04.976Z,31.45
2023-05-19T14:50:07.991Z,29.93
2023-05-19T14:53:11.014Z,31.92
2023-05-19T14:56:13.565Z,32.08
2023-05-19T14:59:16.107Z,30.39
2023-05-19T15:02:18.644Z,30.57
2023-05-19T15:05:22.909Z,30.77
2023-05-19T15:08:25.883Z,30.48
2023-05-19T15:11:28.412Z,31.32
2023-05-19T15:14:31.419Z,32.49
2023-05-19T15:17:34.193Z,33.06
2023-05-19T15:20:36.921Z,32.68
2023-05-19T15:23:39.602Z,32.80
2023-05-19T15:26:42.161Z,32.54
2023-05-19T15:29:44.853Z,32.47
2023-05-19T15:32:47.430Z,32.41
2023-05-19T15:35:52.091Z,33.08
2023-05-19T15:38:54.684Z,33.40
2023-05-19T15:41:57.226Z,32.51
2023-05-19T15:44:59.833Z,31.81
2023-05-19T15:48:03.396Z,31.95
2023-05-19T15:51:06.214Z,32.92
2023-05-19T15:54:08.712Z,32.94
2023-05-19T15:57:11.339Z,31.26
2023-05-19T16:00:14.492Z,30.10
2023-05-19T16:03:17.092Z,29.06
2023-05-19T16:06:20.623Z,28.81
2023-05-19T16:09:23.188Z,28.79
2023-05-19T16:12:27.530Z,29.35
2023-05-19T16:15:30.179Z,28.98
2023-05-19T16:18:32.752Z,28.48
2023-05-19T16:21:35.256Z,28.11
2023-05-19T16:24:37.726Z,28.58
2023-05-19T16:27:40.236Z,29.62
2023-05-19T16:30:43.210Z,30.69
2023-05-19T16:33:46.273Z,30.80
2023-05-19T16:36:48.919Z,30.63
2023-05-19T16:39:51.408Z,30.76
2023-05-19T16:42:54.125Z,29.77
2023-05-19T16:45:57.176Z,29.46
2023-05-19T16:48:59.811Z,29.30
2023-05-19T16:52:02.309Z,29.47
2023-05-19T16:55:06.018Z,28.56
2023-05-19T16:58:10.629Z,27.50
2023-05-19T17:01:13.229Z,27.09
2023-05-19T17:04:15.924Z,26.28
2023-05-19T17:07:18.612Z,26.13
2023-05-19T17:10:21.185Z,25.46
2023-05-19T17:13:23.784Z,25.29
2023-05-19T17:16:26.468Z,24.69
2023-05-19T17:19:29.181Z,24.19
2023-05-19T17:22:31.921Z,23.70
2023-05-19T17:25:34.783Z,23.58
2023-05-19T17:28:37.449Z,23.45
2023-05-19T17:31:40.107Z,23.20
2023-05-19T17:34:42.649Z,23.04
2023-05-19T17:37:45.137Z,22.87
2023-05-19T17:40:47.882Z,22.77
2023-05-19T17:43:50.756Z,22.45
2023-05-19T17:46:53.428Z,22.18
2023-05-19T17:49:56.021Z,21.91
2023-05-19T17:52:58.925Z,21.69
2023-05-19T17:56:03.581Z,21.45
2023-05-19T17:59:06.858Z,21.21
2023-05-19T18:02:10.037Z,21.05
2023-05-19T18:05:13.336Z,20.86
2023-05-19T18:08:16.771Z,20.73
2023-05-19T18:11:19.682Z,20.58
2023-05-19T18:14:22.163Z,20.48
2023-05-19T18:17:24.764Z,20.29
2023-05-19T18:20:27.356Z,20.13
2023-05-19T18:23:30.177Z,20.03
2023-05-19T18:26:33.653Z,19.87
2023-05-19T18:29:36.202Z,19.74
2023-05-19T18:32:38.934Z,19.57
2023-05-19T18:35:41.497Z,19.37
2023-05-19T18:38:44.086Z,19.30
2023-05-19T18:41:47.616Z,19.11
2023-05-19T18:44:50.817Z,19.02
2023-05-19T18:47:54.642Z,18.84
2023-05-19T18:50:57.398Z,18.73
2023-05-19T18:54:00.191Z,18.63
2023-05-19T18:57:03.626Z,18.43
2023-05-19T19:00:06.866Z,18.36
2023-05-19T19:03:11.937Z,18.27
2023-05-19T19:06:17.115Z,18.14
2023-05-19T19:09:19.786Z,18.07
2023-05-19T19:12:22.341Z,18.02
2023-05-19T19:15:25.477Z,17.95
2023-05-19T19:18:28.128Z,17.84
2023-05-19T19:21:31.886Z,17.82
2023-05-19T19:24:34.433Z,17.74
2023-05-19T19:27:37.329Z,17.69
2023-05-19T19:30:39.933Z,17.54
2023-05-19T19:33:43.582Z,17.51
2023-05-19T19:36:47.911Z,17.48
2023-05-19T19:39:50.607Z,17.39
2023-05-19T19:42:53.153Z,17.26
2023-05-19T19:46:00.803Z,17.20
2023-05-19T19:49:03.510Z,17.21
2023-05-19T19:52:06.132Z,17.24
2023-05-19T19:55:09.895Z,17.22
2023-05-19T19:58:12.915Z,17.22
2023-05-19T20:01:16.167Z,17.20
2023-05-19T20:04:18.849Z,17.23
2023-05-19T20:07:23.365Z,17.17
2023-05-19T20:10:26.081Z,17.11
2023-05-19T20:13:30.012Z,17.03
2023-05-19T20:16:33.988Z,16.99
2023-05-19T20:19:36.661Z,17.03
2023-05-19T20:22:39.520Z,17.14
2023-05-19T20:25:58.518Z,17.24
2023-05-19T20:29:05.200Z,17.36
2023-05-19T20:32:07.650Z,17.38
2023-05-19T20:35:10.259Z,17.43
2023-05-19T20:38:12.810Z,17.41
2023-05-19T20:41:15.487Z,17.40
2023-05-19T20:44:18.039Z,17.35
2023-05-19T20:47:21.154Z,17.33
2023-05-19T20:50:23.698Z,17.28
2023-05-19T20:53:26.524Z,17.31
2023-05-19T20:56:29.075Z,17.28
2023-05-19T20:59:32.145Z,17.24
2023-05-19T21:02:34.740Z,17.30
2023-05-19T21:05:37.306Z,17.22
2023-05-19T21:08:39.799Z,17.21
2023-05-19T21:11:42.364Z,17.22
2023-05-19T21:14:44.941Z,17.23
2023-05-19T21:17:47.669Z,17.19
2023-05-19T21:20:50.798Z,17.16
2023-05-19T21:23:53.361Z,17.10
2023-05-19T21:26:55.926Z,16.98
2023-05-19T21:29:58.479Z,16.96
2023-05-19T21:33:01.089Z,16.90
2023-05-19T21:36:03.752Z,16.74
2023-05-19T21:39:06.407Z,16.55
2023-05-19T21:42:09.057Z,16.47
2023-05-19T21:45:11.739Z,16.46
2023-05-19T21:48:14.233Z,16.48
2023-05-19T21:51:16.865Z,16.35
2023-05-19T21:54:19.380Z,16.32
2023-05-19T21:57:21.854Z,16.27
2023-05-19T22:00:25.880Z,16.16
2023-05-19T22:03:28.964Z,16.08
2023-05-19T22:06:31.672Z,16.08
2023-05-19T22:09:34.527Z,15.99
2023-05-19T22:12:37.192Z,15.90
2023-05-19T22:15:39.732Z,15.86
2023-05-19T22:18:42.627Z,15.89
2023-05-19T22:21:45.207Z,15.83
2023-05-19T22:24:47.738Z,15.87
2023-05-19T22:27:50.464Z,15.82
2023-05-19T22:30:52.962Z,15.73
2023-05-19T22:33:56.060Z,15.69
2023-05-19T22:36:58.690Z,15.65
2023-05-19T22:40:01.165Z,15.61
2023-05-19T22:43:03.721Z,15.62
2023-05-19T22:46:06.437Z,15.65
2023-05-19T22:49:08.956Z,15.67
2023-05-19T22:52:11.524Z,15.68
2023-05-19T22:55:14.060Z,15.70
2023-05-19T22:58:16.582Z,15.63
2023-05-19T23:01:19.142Z,15.68
2023-05-19T23:04:21.915Z,15.61
2023-05-19T23:07:24.506Z,15.53
2023-05-19T23:10:27.058Z,15.54
2023-05-19T23:13:34.146Z,15.48
2023-05-19T23:16:36.611Z,15.45
2023-05-19T23:19:39.176Z,15.46
2023-05-19T23:22:41.951Z,15.47
2023-05-19T23:25:44.515Z,15.53
2023-05-19T23:28:47.292Z,15.56
2023-05-19T23:31:49.832Z,15.48
2023-05-19T23:34:52.405Z,15.45
2023-05-19T23:37:54.999Z,15.41
2023-05-19T23:40:57.590Z,15.31
2023-05-19T23:44:00.132Z,15.27
2023-05-19T23:47:02.772Z,15.23
2023-05-19T23:50:05.784Z,15.21
2023-05-19T23:53:12.484Z,15.08
2023-05-19T23:56:15.057Z,15.05
2023-05-19T23:59:17.530Z,15.03
